createdAt,value
2023-05-08T00:00:27.786Z,14.24
2023-05-08T00:02:55.870Z,14.27
2023-05-08T00:05:24.080Z,14.27
2023-05-08T00:07:53.582Z,14.26
2023-05-08T00:10:21.695Z,14.28
2023-05-08T00:12:49.653Z,14.27
2023-05-08T00:15:17.751Z,14.27
2023-05-08T00:17:45.758Z,14.28
2023-05-08T00:20:14.639Z,14.28
2023-05-08T00:22:42.760Z,14.28
2023-05-08T00:25:10.981Z,14.26
2023-05-08T00:27:39.059Z,14.27
2023-05-08T00:30:08.770Z,14.28
2023-05-08T00:32:36.849Z,14.29
2023-05-08T00:35:05.075Z,14.29
2023-05-08T00:37:33.148Z,14.30
2023-05-08T00:40:01.158Z,14.30
2023-05-08T00:42:29.081Z,14.26
2023-05-08T00:44:57.063Z,14.29
2023-05-08T00:47:25.047Z,14.28
2023-05-08T00:49:53.196Z,14.30
2023-05-08T00:52:21.159Z,14.31
2023-05-08T00:54:49.173Z,14.29
2023-05-08T00:57:17.313Z,14.29
2023-05-08T00:59:46.719Z,14.29
2023-05-08T01:02:15.035Z,14.30
2023-05-08T01:04:43.385Z,14.30
2023-05-08T01:07:12.505Z,14.29
2023-05-08T01:09:41.088Z,14.28
2023-05-08T01:12:36.305Z,14.30
2023-05-08T01:15:18.757Z,14.27
2023-05-08T01:17:46.686Z,14.29
2023-05-08T01:20:32.856Z,14.29
2023-05-08T01:23:09.736Z,14.28
2023-05-08T01:25:46.475Z,14.29
2023-05-08T01:28:33.385Z,14.29
2023-05-08T01:31:06.797Z,14.26
2023-05-08T01:33:38.612Z,14.32
2023-05-08T01:36:27.410Z,14.30
2023-05-08T01:38:58.037Z,14.31
2023-05-08T01:41:31.953Z,14.31
2023-05-08T01:44:10.838Z,14.32
2023-05-08T01:46:39.064Z,14.32
2023-05-08T01:49:10.060Z,14.34
2023-05-08T01:51:43.353Z,14.33
2023-05-08T01:54:13.785Z,14.33
2023-05-08T01:56:41.847Z,14.33
2023-05-08T01:59:09.997Z,14.35
2023-05-08T02:01:38.120Z,14.35
2023-05-08T02:04:06.242Z,14.36
2023-05-08T02:06:34.541Z,14.36
2023-05-08T02:09:02.609Z,14.37
2023-05-08T02:11:31.025Z,14.35
2023-05-08T02:14:00.038Z,14.35
2023-05-08T02:16:28.126Z,14.35
2023-05-08T02:18:57.061Z,14.35
2023-05-08T02:21:25.148Z,14.34
2023-05-08T02:23:53.300Z,14.36
2023-05-08T02:26:21.378Z,14.37
2023-05-08T02:28:50.022Z,14.39
2023-05-08T02:31:18.361Z,14.37
2023-05-08T02:33:46.535Z,14.39
2023-05-08T02:36:15.576Z,14.41
2023-05-08T02:38:44.602Z,14.39
2023-05-08T02:41:12.967Z,14.41
2023-05-08T02:43:41.130Z,14.37
2023-05-08T02:46:24.271Z,14.39
2023-05-08T02:48:59.850Z,14.38
2023-05-08T02:51:45.449Z,14.39
2023-05-08T02:54:17.740Z,14.38
2023-05-08T02:56:51.468Z,14.38
2023-05-08T02:59:21.869Z,14.37
2023-05-08T03:01:55.836Z,14.36
2023-05-08T03:07:00.644Z,14.36
2023-05-08T03:09:33.785Z,14.35
2023-05-08T03:12:07.735Z,14.34
2023-05-08T03:14:38.316Z,14.34
2023-05-08T03:17:07.914Z,14.35
2023-05-08T03:19:37.841Z,14.35
2023-05-08T03:22:05.928Z,14.33
2023-05-08T03:24:36.126Z,14.34
2023-05-08T03:27:04.160Z,14.33
2023-05-08T03:29:32.337Z,14.31
2023-05-08T03:32:00.449Z,14.31
2023-05-08T03:34:28.551Z,14.31
2023-05-08T03:36:56.866Z,14.32
2023-05-08T03:39:25.976Z,14.32
2023-05-08T03:41:54.302Z,14.33
2023-05-08T03:44:22.472Z,14.33
2023-05-08T03:46:52.195Z,14.33
2023-05-08T03:49:20.408Z,14.34
2023-05-08T03:51:48.557Z,14.35
2023-05-08T03:54:16.684Z,14.32
2023-05-08T03:56:47.314Z,14.33
2023-05-08T03:59:22.584Z,14.30
2023-05-08T04:01:55.724Z,14.32
2023-05-08T04:07:15.896Z,14.32
2023-05-08T04:10:15.837Z,14.32
2023-05-08T04:12:59.437Z,14.33
2023-05-08T04:15:31.261Z,14.33
2023-05-08T04:18:01.394Z,14.34
2023-05-08T04:20:29.592Z,14.35
2023-05-08T04:22:57.839Z,14.35
2023-05-08T04:25:26.070Z,14.32
2023-05-08T04:27:54.724Z,14.35
2023-05-08T04:30:22.921Z,14.33
2023-05-08T04:32:51.036Z,14.33
2023-05-08T04:35:19.619Z,14.34
2023-05-08T04:37:47.828Z,14.33
2023-05-08T04:40:16.130Z,14.34
2023-05-08T04:42:45.014Z,14.35
2023-05-08T04:45:13.587Z,14.35
2023-05-08T04:47:42.101Z,14.37
2023-05-08T04:50:10.639Z,14.36
2023-05-08T04:52:39.044Z,14.37
2023-05-08T04:55:07.623Z,14.39
2023-05-08T04:57:36.081Z,14.38
2023-05-08T05:00:04.832Z,14.40
2023-05-08T05:02:33.091Z,14.42
2023-05-08T05:05:02.663Z,14.42
2023-05-08T05:07:30.801Z,14.44
2023-05-08T05:09:59.014Z,14.46
2023-05-08T05:12:27.245Z,14.46
2023-05-08T05:14:55.427Z,14.48
2023-05-08T05:17:23.616Z,14.49
2023-05-08T05:19:53.378Z,14.49
2023-05-08T05:22:21.634Z,14.48
2023-05-08T05:24:49.742Z,14.49
2023-05-08T05:27:20.602Z,14.47
2023-05-08T05:29:49.447Z,14.49
2023-05-08T05:32:17.614Z,14.48
2023-05-08T05:34:45.857Z,14.51
2023-05-08T05:37:13.978Z,14.53
2023-05-08T05:39:42.164Z,14.54
2023-05-08T05:42:10.621Z,14.55
2023-05-08T05:44:38.877Z,14.55
2023-05-08T05:47:07.510Z,14.55
2023-05-08T05:49:35.996Z,14.59
2023-05-08T05:52:04.162Z,14.59
2023-05-08T05:54:32.464Z,14.61
2023-05-08T05:57:00.718Z,14.61
2023-05-08T05:59:29.111Z,14.63
2023-05-08T06:01:57.410Z,14.63
2023-05-08T06:04:25.669Z,14.64
2023-05-08T06:06:53.784Z,14.68
2023-05-08T06:09:21.982Z,14.67
2023-05-08T06:11:50.193Z,14.67
2023-05-08T06:14:18.631Z,14.68
2023-05-08T06:16:47.266Z,14.68
2023-05-08T06:19:15.557Z,14.68
2023-05-08T06:21:43.726Z,14.70
2023-05-08T06:24:11.980Z,14.73
2023-05-08T06:26:40.186Z,14.72
2023-05-08T06:29:08.367Z,14.74
2023-05-08T06:31:36.749Z,14.77
2023-05-08T06:34:05.307Z,14.78
2023-05-08T06:36:33.665Z,14.81
2023-05-08T06:39:01.832Z,14.81
2023-05-08T06:41:30.063Z,14.83
2023-05-08T06:43:58.304Z,14.85
2023-05-08T06:46:26.975Z,15.02
2023-05-08T06:48:55.373Z,15.16
2023-05-08T06:51:24.680Z,15.29
2023-05-08T06:53:52.941Z,15.36
2023-05-08T06:56:21.083Z,15.49
2023-05-08T06:59:00.489Z,15.57
2023-05-08T07:01:35.658Z,15.62
2023-05-08T07:04:03.984Z,15.49
2023-05-08T07:06:35.573Z,15.42
2023-05-08T07:09:04.283Z,15.31
2023-05-08T07:11:32.869Z,15.23
2023-05-08T07:14:01.575Z,15.17
2023-05-08T07:16:29.653Z,15.09
2023-05-08T07:18:57.917Z,15.07
2023-05-08T07:21:26.511Z,15.05
2023-05-08T07:23:55.192Z,15.02
2023-05-08T07:26:23.904Z,15.00
2023-05-08T07:28:52.688Z,14.98
2023-05-08T07:31:20.980Z,14.97
2023-05-08T07:33:49.342Z,14.98
2023-05-08T07:36:17.502Z,14.96
2023-05-08T07:38:45.614Z,15.01
2023-05-08T07:41:13.807Z,15.03
2023-05-08T07:43:42.421Z,15.05
2023-05-08T07:46:10.590Z,15.05
2023-05-08T07:48:38.740Z,15.05
2023-05-08T07:51:07.055Z,15.07
2023-05-08T07:53:35.324Z,15.11
2023-05-08T07:56:03.313Z,15.12
2023-05-08T07:58:31.672Z,15.14
2023-05-08T08:00:59.806Z,15.16
2023-05-08T08:03:28.206Z,15.15
2023-05-08T08:05:57.055Z,15.16
2023-05-08T08:08:25.535Z,15.16
2023-05-08T08:10:54.536Z,15.17
2023-05-08T08:13:22.908Z,15.19
2023-05-08T08:15:51.299Z,15.20
2023-05-08T08:18:19.916Z,15.21
2023-05-08T08:20:48.901Z,15.25
2023-05-08T08:23:17.496Z,15.23
2023-05-08T08:25:45.808Z,15.28
2023-05-08T08:28:13.996Z,15.27
2023-05-08T08:30:42.531Z,15.30
2023-05-08T08:33:10.947Z,15.32
2023-05-08T08:35:39.630Z,15.31
2023-05-08T08:38:07.800Z,15.32
2023-05-08T08:40:43.392Z,15.39
2023-05-08T08:43:11.818Z,15.44
2023-05-08T08:45:40.542Z,15.47
2023-05-08T08:48:12.891Z,15.54
2023-05-08T08:50:44.399Z,15.62
2023-05-08T08:53:17.746Z,15.57
2023-05-08T08:55:47.777Z,15.56
2023-05-08T08:58:25.232Z,15.61
2023-05-08T09:00:54.051Z,15.64
2023-05-08T09:03:22.438Z,15.65
2023-05-08T09:05:53.481Z,15.73
2023-05-08T09:08:21.744Z,15.80
2023-05-08T09:10:50.060Z,15.85
2023-05-08T09:13:20.660Z,15.88
2023-05-08T09:15:49.105Z,15.99
2023-05-08T09:18:17.431Z,16.06
2023-05-08T09:20:46.263Z,16.07
2023-05-08T09:23:16.126Z,16.16
2023-05-08T09:25:48.447Z,16.15
2023-05-08T09:28:17.854Z,16.22
2023-05-08T09:30:53.322Z,16.29
2023-05-08T09:33:22.087Z,16.38
2023-05-08T09:35:50.408Z,16.41
2023-05-08T09:38:47.847Z,16.49
2023-05-08T09:41:17.550Z,16.54
2023-05-08T09:43:46.423Z,16.57
2023-05-08T09:46:20.768Z,16.62
2023-05-08T09:48:49.210Z,16.68
2023-05-08T09:51:19.254Z,16.61
2023-05-08T09:53:47.747Z,16.52
2023-05-08T09:56:15.974Z,16.46
2023-05-08T09:58:45.034Z,16.47
2023-05-08T10:01:30.387Z,16.52
2023-05-08T10:03:58.938Z,16.48
2023-05-08T10:06:27.403Z,16.48
2023-05-08T10:09:09.542Z,16.52
2023-05-08T10:11:37.737Z,16.50
2023-05-08T10:14:06.051Z,16.55
2023-05-08T10:16:38.668Z,16.60
2023-05-08T10:19:08.581Z,16.61
2023-05-08T10:21:39.050Z,16.63
2023-05-08T10:24:07.820Z,16.67
2023-05-08T10:26:35.899Z,16.70
2023-05-08T10:29:09.982Z,16.78
2023-05-08T10:31:38.264Z,16.84
2023-05-08T10:34:06.623Z,16.85
2023-05-08T10:36:34.783Z,16.93
2023-05-08T10:39:02.998Z,17.03
2023-05-08T10:41:31.243Z,17.06
2023-05-08T10:44:01.136Z,17.06
2023-05-08T10:46:50.530Z,17.06
2023-05-08T10:49:31.628Z,16.99
2023-05-08T10:52:20.143Z,16.95
2023-05-08T10:55:25.604Z,16.93
2023-05-08T10:58:13.052Z,16.91
2023-05-08T11:01:02.437Z,16.96
2023-05-08T11:03:33.028Z,17.05
2023-05-08T11:06:02.224Z,17.07
2023-05-08T11:08:31.252Z,17.05
2023-05-08T11:11:06.536Z,17.10
2023-05-08T11:13:52.125Z,17.28
2023-05-08T11:16:20.278Z,17.83
2023-05-08T11:19:17.048Z,18.43
2023-05-08T11:22:13.220Z,19.08
2023-05-08T11:24:42.716Z,19.53
2023-05-08T11:27:11.080Z,19.86
2023-05-08T11:29:40.349Z,20.01
2023-05-08T11:32:09.277Z,20.18
2023-05-08T11:34:58.440Z,20.47
2023-05-08T11:37:27.088Z,20.60
2023-05-08T11:39:55.379Z,20.91
2023-05-08T11:42:26.399Z,21.20
2023-05-08T11:45:11.765Z,21.38
2023-05-08T11:47:45.103Z,21.59
2023-05-08T11:50:14.394Z,21.64
2023-05-08T11:52:43.883Z,21.86
2023-05-08T11:55:13.167Z,21.97
2023-05-08T11:57:41.569Z,22.01
2023-05-08T12:00:13.725Z,21.78
2023-05-08T12:02:43.736Z,21.90
2023-05-08T12:05:12.343Z,21.92
2023-05-08T12:07:47.960Z,21.89
2023-05-08T12:10:17.339Z,21.20
2023-05-08T12:12:45.925Z,20.71
2023-05-08T12:15:15.399Z,20.30
2023-05-08T12:17:44.089Z,20.00
2023-05-08T12:20:16.029Z,19.70
2023-05-08T12:22:44.993Z,19.43
2023-05-08T12:25:14.401Z,19.21
2023-05-08T12:27:42.845Z,19.01
2023-05-08T12:30:12.758Z,18.88
2023-05-08T12:32:44.828Z,18.75
2023-05-08T12:35:13.788Z,18.60
2023-05-08T12:37:41.930Z,18.37
2023-05-08T12:40:18.812Z,18.14
2023-05-08T12:42:47.915Z,18.10
2023-05-08T12:45:26.154Z,18.04
2023-05-08T12:47:55.078Z,18.02
2023-05-08T12:50:23.482Z,17.99
2023-05-08T12:52:52.119Z,17.92
2023-05-08T12:55:27.440Z,17.88
2023-05-08T12:58:06.139Z,17.83
2023-05-08T13:00:41.259Z,17.81
2023-05-08T13:03:10.530Z,17.71
2023-05-08T13:05:39.995Z,17.65
2023-05-08T13:08:12.271Z,17.58
2023-05-08T13:10:50.614Z,17.42
2023-05-08T13:13:20.603Z,17.39
2023-05-08T13:15:49.341Z,17.38
2023-05-08T13:18:17.800Z,17.34
2023-05-08T13:20:46.442Z,17.35
2023-05-08T13:23:15.088Z,17.30
2023-05-08T13:25:43.530Z,17.32
2023-05-08T13:28:12.408Z,17.27
2023-05-08T13:30:40.605Z,17.26
2023-05-08T13:33:09.004Z,17.23
2023-05-08T13:35:37.545Z,17.22
2023-05-08T13:38:05.843Z,17.20
2023-05-08T13:40:34.335Z,17.11
2023-05-08T13:43:02.866Z,17.11
2023-05-08T13:45:31.214Z,17.08
2023-05-08T13:47:59.443Z,17.03
2023-05-08T13:50:27.570Z,17.01
2023-05-08T13:52:55.752Z,17.00
2023-05-08T13:55:24.292Z,16.88
2023-05-08T13:57:52.571Z,16.83
2023-05-08T14:00:21.562Z,16.82
2023-05-08T14:02:52.310Z,16.79
2023-05-08T14:05:21.517Z,16.79
2023-05-08T14:07:49.853Z,16.79
2023-05-08T14:10:18.736Z,16.77
2023-05-08T14:12:48.042Z,16.74
2023-05-08T14:15:16.516Z,16.75
2023-05-08T14:17:45.239Z,16.76
2023-05-08T14:20:13.731Z,16.73
2023-05-08T14:22:41.970Z,16.69
2023-05-08T14:25:10.775Z,16.68
2023-05-08T14:27:39.080Z,16.67
2023-05-08T14:30:08.114Z,16.66
2023-05-08T14:32:36.570Z,16.65
2023-05-08T14:35:05.208Z,16.62
2023-05-08T14:37:33.585Z,16.59
2023-05-08T14:40:01.758Z,16.57
2023-05-08T14:42:30.153Z,16.58
2023-05-08T14:44:58.450Z,16.58
2023-05-08T14:47:27.314Z,16.57
2023-05-08T14:49:55.568Z,16.56
2023-05-08T14:52:23.898Z,16.57
2023-05-08T14:54:54.599Z,16.57
2023-05-08T14:57:23.038Z,16.59
2023-05-08T15:02:23.360Z,16.61
2023-05-08T15:04:51.822Z,16.69
2023-05-08T15:07:19.984Z,16.79
2023-05-08T15:09:49.361Z,16.83
2023-05-08T15:12:17.551Z,16.89
2023-05-08T15:14:45.557Z,16.95
2023-05-08T15:17:13.713Z,17.04
2023-05-08T15:19:42.135Z,17.06
2023-05-08T15:22:10.448Z,17.03
2023-05-08T15:24:38.705Z,16.87
2023-05-08T15:27:07.035Z,16.68
2023-05-08T15:29:35.416Z,16.70
2023-05-08T15:32:03.819Z,16.71
2023-05-08T15:34:33.046Z,16.75
2023-05-08T15:37:01.532Z,16.80
2023-05-08T15:39:29.717Z,16.84
2023-05-08T15:41:57.949Z,16.87
2023-05-08T15:44:28.789Z,16.87
2023-05-08T15:47:02.618Z,16.90
2023-05-08T15:49:30.792Z,16.88
2023-05-08T15:51:58.886Z,16.86
2023-05-08T15:54:27.134Z,16.89
2023-05-08T15:56:55.375Z,16.88
2023-05-08T15:59:23.684Z,16.91
2023-05-08T16:01:52.999Z,16.90
2023-05-08T16:04:21.989Z,16.91
2023-05-08T16:06:50.409Z,16.97
2023-05-08T16:09:18.557Z,16.98
2023-05-08T16:11:46.878Z,17.07
2023-05-08T16:14:15.229Z,17.13
2023-05-08T16:16:43.567Z,17.15
2023-05-08T16:19:11.759Z,17.14
2023-05-08T16:21:40.023Z,17.18
2023-05-08T16:24:08.675Z,17.21
2023-05-08T16:26:36.791Z,17.27
2023-05-08T16:29:04.989Z,17.29
2023-05-08T16:31:33.133Z,17.31
2023-05-08T16:34:01.472Z,17.34
2023-05-08T16:36:29.707Z,17.32
2023-05-08T16:38:57.921Z,17.33
2023-05-08T16:41:26.143Z,17.30
2023-05-08T16:43:54.184Z,17.31
2023-05-08T16:46:29.867Z,17.32
2023-05-08T16:48:58.829Z,17.34
2023-05-08T16:51:27.047Z,17.33
2023-05-08T16:53:56.731Z,17.30
2023-05-08T16:56:26.274Z,17.30
2023-05-08T16:58:54.471Z,17.27
2023-05-08T17:01:22.747Z,17.20
2023-05-08T17:03:51.078Z,17.19
2023-05-08T17:06:19.356Z,17.18
2023-05-08T17:08:48.211Z,17.16
2023-05-08T17:11:16.372Z,17.18
2023-05-08T17:13:44.848Z,17.18
2023-05-08T17:16:13.114Z,17.19
2023-05-08T17:18:41.334Z,17.17
2023-05-08T17:21:09.796Z,17.16
2023-05-08T17:23:37.884Z,17.16
2023-05-08T17:26:06.174Z,17.19
2023-05-08T17:28:34.537Z,17.17
2023-05-08T17:31:02.877Z,17.21
2023-05-08T17:33:30.985Z,17.20
2023-05-08T17:35:59.162Z,17.21
2023-05-08T17:38:27.775Z,17.21
2023-05-08T17:40:55.874Z,17.19
2023-05-08T17:43:23.901Z,17.16
2023-05-08T17:45:51.980Z,17.16
2023-05-08T17:48:19.978Z,17.16
2023-05-08T17:50:48.432Z,17.13
2023-05-08T17:53:16.444Z,17.12
2023-05-08T17:55:44.577Z,17.12
2023-05-08T17:58:12.559Z,17.11
2023-05-08T18:00:40.690Z,17.09
2023-05-08T18:03:09.021Z,17.07
2023-05-08T18:05:37.206Z,17.03
2023-05-08T18:08:05.704Z,17.02
2023-05-08T18:10:36.036Z,16.98
2023-05-08T18:13:04.225Z,16.94
2023-05-08T18:15:32.341Z,16.94
2023-05-08T18:18:00.538Z,16.93
2023-05-08T18:20:28.575Z,16.91
2023-05-08T18:22:56.870Z,16.89
2023-05-08T18:25:25.080Z,16.85
2023-05-08T18:27:53.196Z,16.83
2023-05-08T18:30:21.186Z,16.78
2023-05-08T18:32:49.222Z,16.76
2023-05-08T18:35:17.409Z,16.75
2023-05-08T18:37:45.499Z,16.73
2023-05-08T18:40:14.405Z,16.73
2023-05-08T18:42:42.627Z,16.68
2023-05-08T18:45:11.360Z,16.64
2023-05-08T18:47:39.356Z,16.62
2023-05-08T18:50:08.040Z,16.58
2023-05-08T18:52:36.106Z,16.56
2023-05-08T18:55:04.185Z,16.53
2023-05-08T18:57:32.327Z,16.50
2023-05-08T19:00:00.392Z,16.47
2023-05-08T19:02:29.641Z,16.42
2023-05-08T19:04:57.815Z,16.37
2023-05-08T19:07:25.892Z,16.33
2023-05-08T19:09:55.550Z,16.30
2023-05-08T19:12:23.743Z,16.30
2023-05-08T19:14:52.410Z,16.28
2023-05-08T19:17:20.631Z,16.27
2023-05-08T19:19:48.764Z,16.23
2023-05-08T19:22:16.770Z,16.21
2023-05-08T19:24:44.843Z,16.18
2023-05-08T19:27:13.095Z,16.14
2023-05-08T19:29:41.175Z,16.12
2023-05-08T19:32:09.245Z,16.06
2023-05-08T19:34:39.857Z,16.04
2023-05-08T19:37:07.928Z,16.03
2023-05-08T19:39:36.111Z,15.99
2023-05-08T19:42:04.167Z,15.97
2023-05-08T19:44:33.986Z,15.94
2023-05-08T19:47:03.948Z,15.91
2023-05-08T19:49:32.383Z,15.87
2023-05-08T19:52:00.477Z,15.84
2023-05-08T19:54:28.494Z,15.82
2023-05-08T19:56:57.398Z,15.82
2023-05-08T19:59:25.490Z,15.80
2023-05-08T20:01:54.239Z,15.79
2023-05-08T20:04:22.328Z,15.78
2023-05-08T20:06:50.281Z,15.79
2023-05-08T20:09:18.545Z,15.78
2023-05-08T20:11:46.582Z,15.79
2023-05-08T20:14:15.513Z,15.79
2023-05-08T20:16:44.150Z,15.79
2023-05-08T20:19:12.326Z,15.80
2023-05-08T20:21:40.503Z,15.79
2023-05-08T20:24:08.611Z,15.79
2023-05-08T20:26:36.672Z,15.80
2023-05-08T20:29:04.944Z,15.80
2023-05-08T20:31:33.587Z,15.79
2023-05-08T20:34:01.702Z,15.78
2023-05-08T20:36:30.063Z,15.77
2023-05-08T20:38:58.684Z,15.76
2023-05-08T20:41:26.857Z,15.75
2023-05-08T20:43:54.885Z,15.76
2023-05-08T20:46:23.071Z,15.74
2023-05-08T20:48:52.555Z,15.72
2023-05-08T20:51:20.642Z,15.72
2023-05-08T20:53:48.713Z,15.73
2023-05-08T20:56:18.956Z,15.72
2023-05-08T20:58:47.517Z,15.69
2023-05-08T21:01:15.513Z,15.69
2023-05-08T21:03:43.945Z,15.69
2023-05-08T21:06:12.371Z,15.67
2023-05-08T21:08:41.229Z,15.65
2023-05-08T21:11:09.237Z,15.65
2023-05-08T21:13:37.182Z,15.65
2023-05-08T21:16:06.967Z,15.63
2023-05-08T21:18:35.112Z,15.62
2023-05-08T21:21:03.167Z,15.61
2023-05-08T21:23:32.463Z,15.58
2023-05-08T21:26:00.670Z,15.57
2023-05-08T21:28:28.852Z,15.55
2023-05-08T21:30:56.900Z,15.56
2023-05-08T21:33:25.023Z,15.57
2023-05-08T21:35:53.060Z,15.55
2023-05-08T21:38:21.107Z,15.56
2023-05-08T21:40:49.172Z,15.54
2023-05-08T21:43:17.383Z,15.55
2023-05-08T21:45:45.364Z,15.53
2023-05-08T21:48:13.378Z,15.53
2023-05-08T21:50:41.355Z,15.53
2023-05-08T21:53:09.461Z,15.51
2023-05-08T21:55:37.928Z,15.48
2023-05-08T21:58:05.926Z,15.48
2023-05-08T22:00:34.019Z,15.48
2023-05-08T22:03:02.454Z,15.47
2023-05-08T22:05:30.655Z,15.44
2023-05-08T22:07:58.648Z,15.44
2023-05-08T22:10:27.271Z,15.45
2023-05-08T22:12:55.442Z,15.42
2023-05-08T22:15:29.909Z,15.42
2023-05-08T22:17:58.687Z,15.39
2023-05-08T22:20:27.217Z,15.39
2023-05-08T22:22:55.536Z,15.38
2023-05-08T22:25:23.596Z,15.37
2023-05-08T22:27:51.559Z,15.36
2023-05-08T22:30:19.556Z,15.34
2023-05-08T22:32:50.404Z,15.32
2023-05-08T22:35:18.399Z,15.32
2023-05-08T22:37:46.356Z,15.32
2023-05-08T22:40:14.763Z,15.30
2023-05-08T22:42:43.078Z,15.31
2023-05-08T22:45:12.134Z,15.29
2023-05-08T22:47:40.450Z,15.27
2023-05-08T22:50:10.472Z,15.25
2023-05-08T22:52:38.819Z,15.25
2023-05-08T22:55:07.286Z,15.23
2023-05-08T22:57:35.240Z,15.24
2023-05-08T23:00:03.368Z,15.20
2023-05-08T23:02:35.114Z,15.17
2023-05-08T23:05:03.596Z,15.17
2023-05-08T23:07:31.623Z,15.17
2023-05-08T23:09:59.689Z,15.15
2023-05-08T23:12:27.700Z,15.15
2023-05-08T23:14:56.109Z,15.13
2023-05-08T23:17:24.102Z,15.14
2023-05-08T23:19:52.411Z,15.11
2023-05-08T23:22:20.429Z,15.11
2023-05-08T23:24:49.474Z,15.10
2023-05-08T23:27:17.499Z,15.08
2023-05-08T23:29:45.475Z,15.06
2023-05-08T23:32:14.359Z,15.09
2023-05-08T23:34:45.345Z,15.08
2023-05-08T23:37:13.371Z,15.10
2023-05-08T23:39:42.648Z,15.10
2023-05-08T23:42:10.729Z,15.08
2023-05-08T23:44:38.829Z,15.07
2023-05-08T23:47:06.905Z,15.05
2023-05-08T23:49:34.980Z,15.03
2023-05-08T23:52:02.948Z,15.00
2023-05-08T23:54:30.928Z,14.98
2023-05-08T23:56:59.004Z,14.97
2023-05-08T23:59:27.091Z,14.99
